Main page
METAR-TAF:

METAR-TAF

Airports :

Golden Airport

Golden, British Columbia, Canada

latitude: 51-18N, longitude: 116-59W, elevation: 785 m

Current weather observation

The report was made 10 hours and 52 minutes ago, at 00:00 UTC
Wind 2 kt from variable directions
Temperature 31°C
Humidity 26%
Pressure 1015 hPa
Visibility: 32.2 km
Scattered clouds at a height of 11000 ft
Scattered clouds at a height of 14000 ft

METAR: CYGE 170000Z VRB02KT 20SM SCT110 SCT140 31/09 A2998 RMK AC3AC1 LAST STFD OBS/NXT 17/1200Z SLP140 DENSITY ALT 5000FT

Time: 04:52 (10:52 UTC)


TAF: missing

Weather observations and forecasts of more than 4000 airports (METAR and TAF reports).

The available stations are represented by yellow and red dots on the map.

Hover mouse over dot to see the name of the station.

Then click to see weather observations and forecasts.

To change the map : click on the green buttons with a black cross to zoom in, on the green button with a dash to zoom out, or on the green arrows for adjacent maps.


METAR-TAF: